Time;durP1;ratioP1;P1;durP2;ratioP2;P2;SDS_P1;SDS_P2;PMS_P1;PMS_P2;Temp;Humidity;BMP_temperature;BMP_pressure;BME280_temperature;BME280_humidity;BME280_pressure;Samples;Min_cycle;Max_cycle;Signal;HPM_P1;HPM_P2
2022/12/21 00:00:09;;;;;;;;;;;;;;;0.05;99.24;99367.88;4987332;28;19914;-63
2022/12/21 00:02:35;;;;;;;;;;;;;;;0.04;98.86;99366.25;4987077;28;19914;-63
2022/12/21 00:05:00;;;;;;;;;;;;;;;0.02;99.11;99370.84;4986111;28;19918;-64
2022/12/21 00:07:25;;;;;;;;;;;;;;;0.01;99.61;99373.63;4986706;28;19965;-64
2022/12/21 00:09:50;;;;;;;;;;;;;;;0.02;99.56;99375.28;4985265;28;19932;-63
2022/12/21 00:12:15;;;;;;;;;;;;;;;0.02;99.22;99381.41;4984684;28;19918;-63
2022/12/21 00:14:41;;;;;;;;;;;;;;;0.01;99.74;99378.91;4986519;28;19914;-63
2022/12/21 00:17:06;;;;;;;;;;;;;;;-0.02;99.70;99391.44;4985560;28;19914;-63
2022/12/21 00:19:31;;;;;;;;;;;;;;;-0.06;99.54;99384.78;4986532;28;19968;-63
2022/12/21 00:21:57;;;;;;;;;;;;;;;-0.09;99.73;99389.56;4986218;28;20042;-63
2022/12/21 00:24:22;;;;;;;;;;;;;;;-0.14;99.53;99394.44;4985860;28;19928;-63
2022/12/21 00:26:47;;;;;;;;;;;;;;;-0.17;100.00;99382.38;4986682;28;19918;-63
2022/12/21 00:29:12;;;;;;;;;;;;;;;-0.20;100.00;99386.16;4985900;28;20270;-63
2022/12/21 00:31:39;;;;;;;;;;;;;;;-0.20;100.00;99391.44;4986292;28;19914;-63
2022/12/21 00:34:04;;;;;;;;;;;;;;;-0.18;100.00;99393.94;4986290;28;19945;-63
2022/12/21 00:36:30;;;;;;;;;;;;;;;-0.16;100.00;99391.13;4986266;28;19918;-62
2022/12/21 00:38:56;;;;;;;;;;;;;;;-0.16;100.00;99391.97;4986075;28;20008;-63
2022/12/21 00:41:22;;;;;;;;;;;;;;;-0.17;100.00;99379.72;4984710;28;19918;-63
2022/12/21 00:43:48;;;;;;;;;;;;;;;-0.18;100.00;99393.09;4986493;28;19953;-63
2022/12/21 00:46:15;;;;;;;;;;;;;;;-0.20;100.00;99393.25;4986700;28;19945;-63
2022/12/21 00:48:40;;;;;;;;;;;;;;;-0.21;100.00;99388.94;4986454;28;19960;-63
2022/12/21 00:51:07;;;;;;;;;;;;;;;-0.23;100.00;99393.53;4985832;28;19961;-62
2022/12/21 00:53:32;;;;;;;;;;;;;;;-0.27;100.00;99402.75;4985501;28;20020;-63
2022/12/21 00:55:59;;;;;;;;;;;;;;;-0.32;100.00;99408.44;4986677;28;19945;-63
2022/12/21 00:58:25;;;;;;;;;;;;;;;-0.37;100.00;99404.59;4986464;28;19924;-63
2022/12/21 01:00:53;;;;;;;;;;;;;;;-0.38;100.00;99408.25;4986840;28;19914;-62
2022/12/21 01:03:19;;;;;;;;;;;;;;;-0.38;100.00;99406.41;4985073;28;19980;-63
2022/12/21 01:05:45;;;;;;;;;;;;;;;-0.36;100.00;99415.00;4987078;28;20431;-62
2022/12/21 01:08:10;;;;;;;;;;;;;;;-0.34;100.00;99413.03;4985644;28;19925;-62
2022/12/21 01:10:36;;;;;;;;;;;;;;;-0.30;100.00;99410.94;4985009;28;20482;-63
2022/12/21 01:13:01;;;;;;;;;;;;;;;-0.27;100.00;99410.66;4984543;28;19914;-63
2022/12/21 01:15:26;;;;;;;;;;;;;;;-0.23;100.00;99412.81;4986491;28;19925;-62
2022/12/21 01:17:51;;;;;;;;;;;;;;;-0.20;100.00;99430.19;4985991;28;19914;-63
2022/12/21 01:20:17;;;;;;;;;;;;;;;-0.16;100.00;99426.25;4985633;28;19926;-63
2022/12/21 01:22:42;;;;;;;;;;;;;;;-0.13;100.00;99419.84;4986436;28;19914;-63
2022/12/21 01:25:08;;;;;;;;;;;;;;;-0.11;100.00;99418.72;4985545;28;19917;-63
2022/12/21 01:27:33;;;;;;;;;;;;;;;-0.10;100.00;99409.81;4985668;28;20338;-63
2022/12/21 01:29:59;;;;;;;;;;;;;;;-0.07;100.00;99417.44;4985889;28;19925;-61
2022/12/21 01:32:24;;;;;;;;;;;;;;;-0.06;100.00;99424.38;4985981;28;19957;-63
2022/12/21 01:34:49;;;;;;;;;;;;;;;-0.04;100.00;99435.63;4985598;28;19914;-63
2022/12/21 01:37:14;;;;;;;;;;;;;;;-0.03;100.00;99429.34;4985268;28;19961;-63
2022/12/21 01:39:40;;;;;;;;;;;;;;;-0.05;100.00;99419.94;4983398;28;20366;-63
2022/12/21 01:42:07;;;;;;;;;;;;;;;-0.05;100.00;99425.22;4984037;28;20358;-64
2022/12/21 01:45:00;;;;;;;;;;;;;;;-0.05;100.00;99431.31;4984720;28;19914;-64
2022/12/21 01:47:54;;;;;;;;;;;;;;;-0.07;100.00;99430.63;4982416;28;19997;-64
2022/12/21 01:50:38;;;;;;;;;;;;;;;-0.08;100.00;99431.59;4977884;28;19925;-62
2022/12/21 01:53:09;;;;;;;;;;;;;;;-0.06;100.00;99431.47;4984277;28;20005;-63
2022/12/21 01:55:35;;;;;;;;;;;;;;;-0.10;100.00;99428.28;4985189;28;19948;-63
2022/12/21 01:58:01;;;;;;;;;;;;;;;-0.14;100.00;99434.03;4984544;28;20348;-63
2022/12/21 02:00:27;;;;;;;;;;;;;;;-0.19;100.00;99423.91;4984131;28;19981;-62
2022/12/21 02:02:55;;;;;;;;;;;;;;;-0.21;100.00;99410.88;4984833;28;20347;-62
2022/12/21 02:05:40;;;;;;;;;;;;;;;-0.22;100.00;99414.50;4984899;28;19914;-62
2022/12/21 02:08:05;;;;;;;;;;;;;;;-0.20;100.00;99417.00;4985354;28;19914;-63
2022/12/21 02:10:32;;;;;;;;;;;;;;;-0.24;100.00;99411.19;4982855;28;19963;-63
2022/12/21 02:13:00;;;;;;;;;;;;;;;-0.25;100.00;99411.34;4983184;28;20000;-63
2022/12/21 02:15:31;;;;;;;;;;;;;;;-0.27;100.00;99403.56;4984802;28;20010;-63
2022/12/21 02:18:01;;;;;;;;;;;;;;;-0.30;100.00;99395.94;4983448;28;20363;-63
2022/12/21 02:20:40;;;;;;;;;;;;;;;-0.33;100.00;99396.25;4984018;28;19918;-64
2022/12/21 02:23:26;;;;;;;;;;;;;;;-0.37;100.00;99397.53;4982588;28;19914;-64
2022/12/21 02:26:07;;;;;;;;;;;;;;;-0.35;100.00;99411.41;4983090;28;20395;-64
2022/12/21 02:28:50;;;;;;;;;;;;;;;-0.38;100.00;99400.31;4985566;28;20053;-64
2022/12/21 02:31:23;;;;;;;;;;;;;;;-0.39;100.00;99402.09;4985138;28;19972;-64
2022/12/21 02:33:52;;;;;;;;;;;;;;;-0.36;100.00;99401.00;4986091;28;19914;-63
2022/12/21 02:36:43;;;;;;;;;;;;;;;-0.38;100.00;99401.16;4986707;28;19921;-63
2022/12/21 02:39:11;;;;;;;;;;;;;;;-0.43;100.00;99395.47;4977105;28;19922;-64
2022/12/21 02:41:39;;;;;;;;;;;;;;;-0.48;100.00;99395.94;4986251;28;19957;-63
2022/12/21 02:44:16;;;;;;;;;;;;;;;-0.49;100.00;99385.53;4987775;28;19945;-63
2022/12/21 02:47:10;;;;;;;;;;;;;;;-0.51;100.00;99390.97;4986271;28;20377;-63
2022/12/21 02:49:46;;;;;;;;;;;;;;;-0.51;100.00;99398.03;4978061;28;20460;-63
2022/12/21 02:52:17;;;;;;;;;;;;;;;-0.51;100.00;99393.59;4987698;28;20008;-63
2022/12/21 02:54:44;;;;;;;;;;;;;;;-0.49;100.00;99391.63;4987707;28;19914;-64
2022/12/21 02:57:09;;;;;;;;;;;;;;;-0.50;100.00;99381.22;4987499;28;20227;-63
2022/12/21 02:59:37;;;;;;;;;;;;;;;-0.50;100.00;99384.72;4988561;28;19914;-63
2022/12/21 03:02:02;;;;;;;;;;;;;;;-0.49;100.00;99385.53;4987968;28;19914;-63
2022/12/21 03:04:37;;;;;;;;;;;;;;;-0.51;100.00;99390.13;4987085;28;20318;-63
2022/12/21 03:07:21;;;;;;;;;;;;;;;-0.53;100.00;99389.47;4987330;28;20294;-63
2022/12/21 03:10:06;;;;;;;;;;;;;;;-0.54;100.00;99390.41;4987116;28;19922;-63
2022/12/21 03:12:31;;;;;;;;;;;;;;;-0.56;100.00;99382.66;4987209;28;19918;-63
2022/12/21 03:15:19;;;;;;;;;;;;;;;-0.55;100.00;99386.97;4987377;28;20322;-63
2022/12/21 03:18:03;;;;;;;;;;;;;;;-0.53;100.00;99389.47;4985728;28;19928;-63
2022/12/21 03:20:38;;;;;;;;;;;;;;;-0.51;100.00;99392.78;4985465;28;19914;-64
2022/12/21 03:23:12;;;;;;;;;;;;;;;-0.55;100.00;99392.25;4987384;28;20264;-64
2022/12/21 03:25:43;;;;;;;;;;;;;;;-0.54;100.00;99388.59;4987997;28;19914;-63
2022/12/21 03:28:13;;;;;;;;;;;;;;;-0.54;100.00;99393.06;4986452;28;20016;-63
2022/12/21 03:30:41;;;;;;;;;;;;;;;-0.52;100.00;99393.75;4987109;28;19922;-64
2022/12/21 03:33:09;;;;;;;;;;;;;;;-0.52;100.00;99394.59;4987005;28;20310;-63
2022/12/21 03:35:46;;;;;;;;;;;;;;;-0.51;100.00;99388.31;4987947;28;19972;-63
2022/12/21 03:38:18;;;;;;;;;;;;;;;-0.50;100.00;99383.88;4987683;28;19925;-63
2022/12/21 03:40:46;;;;;;;;;;;;;;;-0.51;100.00;99382.22;4985905;28;19924;-63
2022/12/21 03:43:21;;;;;;;;;;;;;;;-0.52;100.00;99373.50;4984578;28;20375;-63
2022/12/21 03:45:49;;;;;;;;;;;;;;;-0.52;100.00;99370.00;4985997;28;20016;-62
2022/12/21 03:48:31;;;;;;;;;;;;;;;-0.52;100.00;99367.38;4986597;28;20268;-63
2022/12/21 03:50:59;;;;;;;;;;;;;;;-0.49;100.00;99367.09;4986502;28;20316;-63
2022/12/21 03:53:44;;;;;;;;;;;;;;;-0.49;100.00;99369.72;4987253;28;19922;-63
2022/12/21 03:56:12;;;;;;;;;;;;;;;-0.46;100.00;99367.63;4987058;28;19975;-63
2022/12/21 03:58:38;;;;;;;;;;;;;;;-0.47;100.00;99367.75;4986429;28;20363;-63
2022/12/21 04:01:18;;;;;;;;;;;;;;;-0.46;100.00;99366.78;4986798;28;19914;-63
2022/12/21 04:03:46;;;;;;;;;;;;;;;-0.46;100.00;99372.88;4986252;28;19917;-62
2022/12/21 04:06:19;;;;;;;;;;;;;;;-0.43;100.00;99371.75;4985726;28;19917;-63
2022/12/21 04:08:46;;;;;;;;;;;;;;;-0.45;100.00;99369.25;4986309;28;19918;-63
2022/12/21 04:12:36;;;;;;;;;;;;;;;-0.44;100.00;99372.75;4986231;28;19979;-63
2022/12/21 04:13:57;;;;;;;;;;;;;;;-0.46;100.00;99370.25;4986630;28;19918;-64
2022/12/21 04:16:22;;;;;;;;;;;;;;;-0.44;100.00;99372.75;4985989;28;20045;-63
2022/12/21 04:21:31;;;;;;;;;;;;;;;-0.45;100.00;99360.53;4987169;28;19918;-63
2022/12/21 04:29:24;;;;;;;;;;;;;;;-0.45;100.00;99369.25;4986825;28;19918;-63
2022/12/21 04:31:49;;;;;;;;;;;;;;;-0.43;100.00;99363.84;4986232;28;20346;-63
2022/12/21 04:34:14;;;;;;;;;;;;;;;-0.43;100.00;99369.09;4986414;28;20398;-63
2022/12/21 04:39:24;;;;;;;;;;;;;;;-0.41;100.00;99361.88;4985807;28;20016;-63
2022/12/21 04:41:49;;;;;;;;;;;;;;;-0.40;100.00;99366.19;4986097;28;20035;-64
2022/12/21 04:44:15;;;;;;;;;;;;;;;-0.45;100.00;99365.78;4986710;28;20001;-64
2022/12/21 04:46:40;;;;;;;;;;;;;;;-0.45;100.00;99371.88;4986264;28;19914;-63
2022/12/21 04:49:05;;;;;;;;;;;;;;;-0.44;100.00;99367.47;4985759;28;20478;-64
2022/12/21 04:51:30;;;;;;;;;;;;;;;-0.45;100.00;99357.88;4985714;28;19918;-63
2022/12/21 04:53:56;;;;;;;;;;;;;;;-0.42;100.00;99355.78;4985120;28;19918;-63
2022/12/21 04:56:21;;;;;;;;;;;;;;;-0.40;100.00;99358.25;4985263;28;19918;-63
2022/12/21 04:58:46;;;;;;;;;;;;;;;-0.40;100.00;99358.25;4985537;28;20359;-63
2022/12/21 05:01:13;;;;;;;;;;;;;;;-0.42;100.00;99352.31;4985901;28;20004;-63
2022/12/21 05:03:39;;;;;;;;;;;;;;;-0.45;100.00;99350.78;4985481;28;20327;-63
2022/12/21 05:06:04;;;;;;;;;;;;;;;-0.43;100.00;99356.78;4984777;28;20016;-63
2022/12/21 05:08:30;;;;;;;;;;;;;;;-0.43;100.00;99356.78;4985343;28;19921;-63
2022/12/21 05:11:05;;;;;;;;;;;;;;;-0.40;100.00;99355.63;4985110;28;19918;-63
2022/12/21 05:13:32;;;;;;;;;;;;;;;-0.41;100.00;99359.22;4983966;28;19989;-63
2022/12/21 05:16:01;;;;;;;;;;;;;;;-0.41;100.00;99356.59;4983678;28;19918;-63
2022/12/21 05:18:27;;;;;;;;;;;;;;;-0.41;100.00;99353.97;4983320;28;19921;-63
2022/12/21 05:20:52;;;;;;;;;;;;;;;-0.43;100.00;99359.41;4984610;28;20389;-63
2022/12/21 05:23:17;;;;;;;;;;;;;;;-0.44;100.00;99357.75;4984991;28;19922;-63
2022/12/21 05:25:43;;;;;;;;;;;;;;;-0.42;100.00;99354.97;4984998;28;20267;-63
2022/12/21 05:28:08;;;;;;;;;;;;;;;-0.42;100.00;99347.03;4984347;28;20294;-63
2022/12/21 05:30:33;;;;;;;;;;;;;;;-0.41;100.00;99354.81;4985978;28;19941;-62
2022/12/21 05:33:00;;;;;;;;;;;;;;;-0.41;100.00;99341.63;4985965;28;19915;-63
2022/12/21 05:35:25;;;;;;;;;;;;;;;-0.42;100.00;99342.59;4986251;28;19917;-63
2022/12/21 05:37:50;;;;;;;;;;;;;;;-0.43;100.00;99348.00;4984639;28;19933;-63
2022/12/21 05:40:15;;;;;;;;;;;;;;;-0.42;100.00;99349.69;4984334;28;20398;-62
2022/12/21 05:42:40;;;;;;;;;;;;;;;-0.39;100.00;99346.72;4985131;28;20347;-62
2022/12/21 05:45:06;;;;;;;;;;;;;;;-0.36;100.00;99348.25;4984936;28;19942;-62
2022/12/21 05:47:31;;;;;;;;;;;;;;;-0.33;100.00;99359.31;4982823;28;19918;-62
2022/12/21 05:49:56;;;;;;;;;;;;;;;-0.32;100.00;99365.41;4985463;28;19918;-62
2022/12/21 05:52:22;;;;;;;;;;;;;;;-0.32;100.00;99360.97;4985000;28;19917;-62
2022/12/21 05:54:47;;;;;;;;;;;;;;;-0.34;100.00;99360.28;4984774;28;20286;-62
2022/12/21 05:57:12;;;;;;;;;;;;;;;-0.32;100.00;99366.25;4985036;28;19918;-63
2022/12/21 05:59:37;;;;;;;;;;;;;;;-0.38;100.00;99364.22;4985465;28;19936;-62
2022/12/21 06:02:03;;;;;;;;;;;;;;;-0.37;100.00;99360.63;4985343;28;19949;-62
2022/12/21 06:04:28;;;;;;;;;;;;;;;-0.36;100.00;99361.44;4984577;28;20323;-62
2022/12/21 06:06:54;;;;;;;;;;;;;;;-0.34;100.00;99360.28;4984932;28;19922;-62
2022/12/21 06:09:19;;;;;;;;;;;;;;;-0.33;100.00;99363.78;4984954;28;19961;-63
2022/12/21 06:11:44;;;;;;;;;;;;;;;-0.32;100.00;99366.25;4984310;28;20421;-62
2022/12/21 06:14:10;;;;;;;;;;;;;;;-0.33;100.00;99363.78;4984832;28;19914;-62
2022/12/21 06:16:35;;;;;;;;;;;;;;;-0.34;100.00;99362.13;4984755;28;19914;-62
2022/12/21 06:19:00;;;;;;;;;;;;;;;-0.36;100.00;99367.53;4985255;28;19918;-62
2022/12/21 06:21:25;;;;;;;;;;;;;;;-0.36;100.00;99361.44;4985794;28;19918;-61
2022/12/21 06:23:51;;;;;;;;;;;;;;;-0.39;100.00;99362.53;4984887;28;19969;-62
2022/12/21 06:26:17;;;;;;;;;;;;;;;-0.39;100.00;99367.81;4984954;28;19918;-62
2022/12/21 06:28:50;;;;;;;;;;;;;;;-0.37;100.00;99367.69;4982613;28;19979;-61
2022/12/21 06:31:18;;;;;;;;;;;;;;;-0.36;100.00;99367.53;4984816;28;19924;-62
2022/12/21 06:33:43;;;;;;;;;;;;;;;-0.32;100.00;99368.88;4984570;28;19915;-63
2022/12/21 06:36:09;;;;;;;;;;;;;;;-0.30;100.00;99380.09;4985175;28;19937;-62
2022/12/21 06:38:35;;;;;;;;;;;;;;;-0.32;100.00;99381.25;4983584;28;20020;-63
2022/12/21 06:41:04;;;;;;;;;;;;;;;-0.33;100.00;99384.88;4983270;28;19973;-63
2022/12/21 06:43:31;;;;;;;;;;;;;;;-0.34;100.00;99381.41;4984586;28;19921;-63
2022/12/21 06:45:58;;;;;;;;;;;;;;;-0.35;100.00;99382.38;4983737;28;19918;-63
2022/12/21 06:48:25;;;;;;;;;;;;;;;-0.38;100.00;99390.59;4984306;28;19922;-63
2022/12/21 06:50:51;;;;;;;;;;;;;;;-0.40;100.00;99388.09;4984331;28;20021;-63
2022/12/21 06:53:17;;;;;;;;;;;;;;;-0.41;100.00;99396.16;4983858;28;19953;-61
2022/12/21 06:55:42;;;;;;;;;;;;;;;-0.42;100.00;99395.34;4983927;28;20287;-63
2022/12/21 06:58:07;;;;;;;;;;;;;;;-0.41;100.00;99397.00;4985452;28;19914;-63
2022/12/21 07:00:32;;;;;;;;;;;;;;;-0.39;100.00;99391.56;4983076;28;19918;-63
2022/12/21 07:02:58;;;;;;;;;;;;;;;-0.38;100.00;99398.50;4984056;28;19918;-62
2022/12/21 07:05:23;;;;;;;;;;;;;;;-0.37;100.00;99399.31;4983909;28;19922;-63
2022/12/21 07:07:48;;;;;;;;;;;;;;;-0.36;100.00;99391.28;4984307;28;19921;-63
2022/12/21 07:10:13;;;;;;;;;;;;;;;-0.36;100.00;99388.63;4984667;28;19929;-63
2022/12/21 07:12:39;;;;;;;;;;;;;;;-0.34;100.00;99391.94;4984875;28;19914;-63
2022/12/21 07:15:04;;;;;;;;;;;;;;;-0.34;100.00;99391.94;4983146;28;19918;-63
2022/12/21 07:17:29;;;;;;;;;;;;;;;-0.36;100.00;99393.91;4983160;28;19918;-63
2022/12/21 07:19:55;;;;;;;;;;;;;;;-0.35;100.00;99395.59;4985874;28;20369;-63
2022/12/21 07:22:20;;;;;;;;;;;;;;;-0.35;100.00;99387.66;4986320;28;19914;-63
2022/12/21 07:24:45;;;;;;;;;;;;;;;-0.38;100.00;99387.97;4987923;28;19915;-62
2022/12/21 07:27:10;;;;;;;;;;;;;;;-0.39;100.00;99388.91;4988869;28;19921;-63
2022/12/21 07:29:36;;;;;;;;;;;;;;;-0.37;100.00;99388.78;4988164;28;20065;-62
2022/12/21 07:32:01;;;;;;;;;;;;;;;-0.35;100.00;99398.22;4986913;28;19918;-62
2022/12/21 07:34:26;;;;;;;;;;;;;;;-0.40;100.00;99401.28;4986613;28;20350;-63
2022/12/21 07:36:51;;;;;;;;;;;;;;;-0.39;100.00;99404.75;4987127;28;20289;-63
2022/12/21 07:39:17;;;;;;;;;;;;;;;-0.39;100.00;99396.84;4986348;28;20394;-63
2022/12/21 07:41:42;;;;;;;;;;;;;;;-0.38;100.00;99398.50;4986195;28;19948;-63
2022/12/21 07:44:07;;;;;;;;;;;;;;;-0.35;100.00;99400.84;4986046;28;19921;-63
2022/12/21 07:46:32;;;;;;;;;;;;;;;-0.33;100.00;99398.91;4986905;28;19914;-63
2022/12/21 07:48:58;;;;;;;;;;;;;;;-0.34;100.00;99410.41;4987280;28;19953;-62
2022/12/21 07:51:23;;;;;;;;;;;;;;;-0.36;100.00;99414.19;4987746;28;20396;-63
2022/12/21 07:53:48;;;;;;;;;;;;;;;-0.37;100.00;99416.00;4985686;28;20343;-64
2022/12/21 07:56:14;;;;;;;;;;;;;;;-0.36;100.00;99416.81;4985795;28;19928;-64
2022/12/21 07:58:40;;;;;;;;;;;;;;;-0.40;100.00;99426.84;4986228;28;20274;-64
2022/12/21 08:01:07;;;;;;;;;;;;;;;-0.37;100.00;99423.91;4986512;28;20322;-66
2022/12/21 08:03:33;;;;;;;;;;;;;;;-0.39;100.00;99425.84;4985386;28;19918;-65
2022/12/21 08:05:58;;;;;;;;;;;;;;;-0.38;100.00;99430.16;4985350;28;19917;-64
2022/12/21 08:08:24;;;;;;;;;;;;;;;-0.39;100.00;99425.84;4986622;28;20012;-64
2022/12/21 08:10:49;;;;;;;;;;;;;;;-0.37;100.00;99441.53;4985794;28;19922;-64
2022/12/21 08:13:14;;;;;;;;;;;;;;;-0.39;100.00;99433.75;4985911;28;19918;-64
2022/12/21 08:15:39;;;;;;;;;;;;;;;-0.38;100.00;99443.34;4985869;28;19914;-65
2022/12/21 08:18:05;;;;;;;;;;;;;;;-0.36;100.00;99430.00;4985218;28;19914;-64
2022/12/21 08:20:30;;;;;;;;;;;;;;;-0.37;100.00;99430.97;4986175;28;19913;-64
2022/12/21 08:22:56;;;;;;;;;;;;;;;-0.34;100.00;99430.69;4986084;28;20262;-64
2022/12/21 08:25:21;;;;;;;;;;;;;;;-0.32;100.00;99426.91;4986027;28;19918;-64
2022/12/21 08:27:46;;;;;;;;;;;;;;;-0.32;100.00;99431.38;4984343;28;19922;-64
2022/12/21 08:30:12;;;;;;;;;;;;;;;-0.32;100.00;99437.47;4984879;28;19957;-64
2022/12/21 08:32:37;;;;;;;;;;;;;;;-0.33;100.00;99442.91;4986055;28;20349;-64
2022/12/21 08:35:02;;;;;;;;;;;;;;;-0.34;100.00;99442.06;4986309;28;19914;-64
2022/12/21 08:37:28;;;;;;;;;;;;;;;-0.38;100.00;99442.53;4986202;28;20293;-64
2022/12/21 08:39:53;;;;;;;;;;;;;;;-0.40;100.00;99450.59;4985496;28;19984;-64
2022/12/21 08:42:18;;;;;;;;;;;;;;;-0.40;100.00;99446.13;4985256;28;19917;-64
2022/12/21 08:44:43;;;;;;;;;;;;;;;-0.41;100.00;99441.00;4986042;28;19957;-64
2022/12/21 08:47:09;;;;;;;;;;;;;;;-0.42;100.00;99442.00;4984145;28;19913;-64
2022/12/21 08:49:34;;;;;;;;;;;;;;;-0.42;100.00;99439.34;4984695;28;20430;-64
2022/12/21 08:51:59;;;;;;;;;;;;;;;-0.41;100.00;99436.56;4984664;28;19941;-64
2022/12/21 08:54:25;;;;;;;;;;;;;;;-0.40;100.00;99437.41;4985817;28;19917;-64
2022/12/21 08:56:50;;;;;;;;;;;;;;;-0.37;100.00;99428.34;4986571;28;19926;-64
2022/12/21 08:59:16;;;;;;;;;;;;;;;-0.36;100.00;99422.94;4985063;28;19940;-64
2022/12/21 09:01:41;;;;;;;;;;;;;;;-0.34;100.00;99433.34;4986012;28;19918;-64
2022/12/21 09:04:06;;;;;;;;;;;;;;;-0.34;100.00;99444.69;4984534;28;19918;-64
2022/12/21 09:06:32;;;;;;;;;;;;;;;-0.32;100.00;99440.09;4985003;28;19914;-64
2022/12/21 09:08:57;;;;;;;;;;;;;;;-0.31;100.00;99439.13;4985401;28;19989;-64
2022/12/21 09:11:23;;;;;;;;;;;;;;;-0.32;100.00;99445.38;4985021;28;19960;-64
2022/12/21 09:13:49;;;;;;;;;;;;;;;-0.32;100.00;99450.66;4985279;28;19914;-64
2022/12/21 09:16:18;;;;;;;;;;;;;;;-0.35;100.00;99456.25;4986382;28;20466;-64
2022/12/21 09:18:43;;;;;;;;;;;;;;;-0.40;100.00;99446.13;4985176;28;20281;-64
2022/12/21 09:21:09;;;;;;;;;;;;;;;-0.36;100.00;99444.03;4985180;28;19915;-64
2022/12/21 09:23:35;;;;;;;;;;;;;;;-0.30;100.00;99453.16;4985392;28;19917;-64
2022/12/21 09:26:01;;;;;;;;;;;;;;;-0.29;100.00;99453.00;4985030;28;20389;-64
2022/12/21 09:28:26;;;;;;;;;;;;;;;-0.27;100.00;99453.69;4985769;28;19918;-64
2022/12/21 09:30:51;;;;;;;;;;;;;;;-0.22;100.00;99445.34;4984255;28;19926;-64
2022/12/21 09:33:17;;;;;;;;;;;;;;;-0.24;100.00;99449.94;4982605;28;19913;-64
2022/12/21 09:35:43;;;;;;;;;;;;;;;-0.21;100.00;99447.81;4985241;28;19999;-64
2022/12/21 09:38:08;;;;;;;;;;;;;;;-0.23;100.00;99464.78;4984613;28;20306;-64
2022/12/21 09:40:33;;;;;;;;;;;;;;;-0.25;100.00;99464.09;4982851;28;19925;-64
2022/12/21 09:43:05;;;;;;;;;;;;;;;-0.24;100.00;99465.78;4984367;28;20007;-64
2022/12/21 09:45:45;;;;;;;;;;;;;;;-0.23;100.00;99462.97;4984003;28;20004;-64
2022/12/21 09:48:14;;;;;;;;;;;;;;;-0.27;100.00;99452.88;4983493;28;20320;-64
2022/12/21 09:50:45;;;;;;;;;;;;;;;-0.25;100.00;99470.19;4983349;28;19918;-64
2022/12/21 09:53:29;;;;;;;;;;;;;;;-0.24;100.00;99469.22;4985414;28;19921;-64
2022/12/21 09:55:57;;;;;;;;;;;;;;;-0.28;100.00;99462.59;4984199;28;19925;-64
2022/12/21 09:58:28;;;;;;;;;;;;;;;-0.25;100.00;99448.25;4984053;28;20405;-64
2022/12/21 10:00:59;;;;;;;;;;;;;;;-0.24;100.00;99447.31;4984564;28;19913;-64
2022/12/21 10:03:30;;;;;;;;;;;;;;;-0.24;100.00;99463.94;4984558;28;19917;-64
2022/12/21 10:06:04;;;;;;;;;;;;;;;-0.30;100.00;99468.97;4984708;28;20000;-64
2022/12/21 10:08:37;;;;;;;;;;;;;;;-0.25;100.00;99467.56;4984274;28;19934;-64
2022/12/21 10:11:19;;;;;;;;;;;;;;;-0.25;100.00;99466.72;4984014;28;19917;-64
2022/12/21 10:13:44;;;;;;;;;;;;;;;-0.26;100.00;99467.69;4984060;28;19914;-64
2022/12/21 10:16:18;;;;;;;;;;;;;;;-0.27;100.00;99466.88;4984177;28;19921;-64
2022/12/21 10:19:03;;;;;;;;;;;;;;;-0.29;100.00;99463.56;4984988;28;19914;-64
2022/12/21 10:21:44;;;;;;;;;;;;;;;-0.23;100.00;99454.22;4982356;28;20053;-64
2022/12/21 10:24:18;;;;;;;;;;;;;;;-0.17;100.00;99458.06;4984236;28;19937;-64
2022/12/21 10:26:43;;;;;;;;;;;;;;;-0.23;100.00;99447.13;4983989;28;19914;-64
2022/12/21 10:29:15;;;;;;;;;;;;;;;-0.20;100.00;99441.56;4984349;28;19921;-64
2022/12/21 10:31:45;;;;;;;;;;;;;;;-0.18;100.00;99443.22;4983224;28;19960;-64
2022/12/21 10:34:15;;;;;;;;;;;;;;;-0.15;100.00;99435.00;4984741;28;20071;-64
2022/12/21 10:36:41;;;;;;;;;;;;;;;-0.15;100.00;99435.00;4984540;28;19913;-64
2022/12/21 10:39:10;;;;;;;;;;;;;;;-0.16;100.00;99433.34;4982459;28;19929;-64
2022/12/21 10:41:38;;;;;;;;;;;;;;;-0.11;100.00;99439.00;4981963;28;19918;-64
2022/12/21 10:44:04;;;;;;;;;;;;;;;-0.06;100.00;99428.81;4982365;28;19926;-64
2022/12/21 10:46:32;;;;;;;;;;;;;;;-0.02;100.00;99416.97;4983987;28;19921;-64
2022/12/21 10:49:12;;;;;;;;;;;;;;;-0.01;100.00;99423.94;4982662;28;19998;-64
2022/12/21 10:51:37;;;;;;;;;;;;;;;-0.02;100.00;99427.53;4983015;28;20012;-64
2022/12/21 10:54:07;;;;;;;;;;;;;;;-0.01;100.00;99422.09;4983961;28;20339;-64
2022/12/21 10:56:35;;;;;;;;;;;;;;;0.06;99.86;99416.25;4984666;28;19922;-64
2022/12/21 10:59:14;;;;;;;;;;;;;;;0.15;99.69;99410.06;4988280;28;19921;-64
2022/12/21 11:01:39;;;;;;;;;;;;;;;0.14;98.89;99413.66;4987922;28;20359;-64
2022/12/21 11:04:13;;;;;;;;;;;;;;;0.09;98.88;99403.53;4987563;28;20009;-65
2022/12/21 11:06:39;;;;;;;;;;;;;;;0.06;98.48;99418.88;4987664;28;19914;-64
2022/12/21 11:09:24;;;;;;;;;;;;;;;0.01;97.57;99411.41;4987332;28;20259;-64
2022/12/21 11:11:52;;;;;;;;;;;;;;;0.08;98.24;99412.47;4986411;28;19925;-64
2022/12/21 11:14:17;;;;;;;;;;;;;;;0.10;98.22;99412.31;4987143;28;19922;-64
2022/12/21 11:16:44;;;;;;;;;;;;;;;0.18;98.04;99407.91;4987284;28;20267;-64
2022/12/21 11:19:18;;;;;;;;;;;;;;;0.13;97.95;99407.56;4987230;28;19918;-64
2022/12/21 11:21:46;;;;;;;;;;;;;;;0.07;97.81;99397.59;4986782;28;20004;-64
2022/12/21 11:24:14;;;;;;;;;;;;;;;0.11;97.77;99413.94;4986816;28;20024;-65
2022/12/21 11:26:41;;;;;;;;;;;;;;;0.04;97.67;99405.84;4987337;28;19913;-65
2022/12/21 11:29:13;;;;;;;;;;;;;;;0.05;98.39;99410.13;4986816;28;19925;-65
2022/12/21 11:31:39;;;;;;;;;;;;;;;0.00;98.15;99422.97;4986630;28;20008;-65
2022/12/21 11:34:04;;;;;;;;;;;;;;;-0.09;96.79;99415.94;4986780;28;19968;-65
2022/12/21 11:36:29;;;;;;;;;;;;;;;-0.06;97.76;99413.81;4987404;28;19918;-65
2022/12/21 11:38:55;;;;;;;;;;;;;;;-0.08;97.23;99410.50;4985330;28;20351;-65
2022/12/21 11:41:25;;;;;;;;;;;;;;;-0.07;97.85;99403.44;4985127;28;19943;-64
2022/12/21 11:43:51;;;;;;;;;;;;;;;-0.06;98.55;99411.16;4986159;28;19965;-65
2022/12/21 11:46:41;;;;;;;;;;;;;;;-0.17;nan;99421.94;4986974;28;19969;-65
2022/12/21 11:49:22;;;;;;;;;;;;;;;-0.25;98.34;99413.97;4985559;28;19940;-65
2022/12/21 11:52:02;;;;;;;;;;;;;;;-0.31;98.93;99404.84;4986593;28;19965;-65
2022/12/21 11:54:46;;;;;;;;;;;;;;;-0.28;99.06;99403.72;4985574;28;19917;-65
2022/12/21 11:57:17;;;;;;;;;;;;;;;-0.21;100.00;99397.69;4986422;28;20402;-64
2022/12/21 11:59:54;;;;;;;;;;;;;;;-0.16;99.90;99405.16;4985388;28;20113;-64
2022/12/21 12:02:31;;;;;;;;;;;;;;;-0.20;100.00;99401.97;4986068;28;20274;-65
2022/12/21 12:05:23;;;;;;;;;;;;;;;-0.11;100.00;99405.53;4985830;28;19921;-64
2022/12/21 12:07:49;;;;;;;;;;;;;;;-0.14;100.00;99412.91;4985160;28;20008;-64
2022/12/21 12:10:39;;;;;;;;;;;;;;;-0.14;100.00;99405.81;4985612;28;20009;-64
2022/12/21 12:13:18;;;;;;;;;;;;;;;-0.11;100.00;99407.31;4985967;28;20819;-64
2022/12/21 12:15:59;;;;;;;;;;;;;;;-0.06;100.00;99399.78;4985630;28;20001;-64
2022/12/21 12:18:47;;;;;;;;;;;;;;;-0.07;99.75;99398.97;4986105;28;19924;-65
2022/12/21 12:21:15;;;;;;;;;;;;;;;-0.02;100.00;99391.44;4984665;28;19925;-65
2022/12/21 12:23:47;;;;;;;;;;;;;;;-0.01;99.93;99387.78;4986222;28;19918;-65
2022/12/21 12:26:19;;;;;;;;;;;;;;;-0.02;100.00;99404.63;4986300;28;19918;-65
2022/12/21 12:28:44;;;;;;;;;;;;;;;-0.01;100.00;99408.91;4986305;28;19914;-65
2022/12/21 12:31:16;;;;;;;;;;;;;;;-0.03;99.49;99402.13;4984321;28;19928;-64
2022/12/21 12:33:47;;;;;;;;;;;;;;;-0.02;99.79;99395.88;4986104;28;20027;-64
2022/12/21 12:36:28;;;;;;;;;;;;;;;0.03;100.00;99387.50;4985064;28;19996;-64
2022/12/21 12:38:55;;;;;;;;;;;;;;;0.06;100.00;99387.22;4983088;28;19953;-64
2022/12/21 12:41:39;;;;;;;;;;;;;;;0.06;100.00;99385.38;4983373;28;20008;-64
2022/12/21 12:44:12;;;;;;;;;;;;;;;0.01;99.99;99392.94;4985316;28;19918;-65
2022/12/21 12:46:56;;;;;;;;;;;;;;;0.05;100.00;99385.53;4984761;28;20002;-65
2022/12/21 12:49:35;;;;;;;;;;;;;;;-0.03;99.53;99391.59;4985306;28;20286;-65
2022/12/21 12:52:00;;;;;;;;;;;;;;;-0.06;100.00;99391.88;4985273;28;20266;-65
2022/12/21 12:54:44;;;;;;;;;;;;;;;-0.02;100.00;99387.94;4985304;28;19914;-65
2022/12/21 12:57:29;;;;;;;;;;;;;;;0.05;100.00;99393.44;4985413;28;19981;-64